createdAt,value
2016-11-18T00:00:01.315Z,73127
2016-11-18T00:00:10.079Z,73125
2016-11-18T00:00:18.807Z,73127
2016-11-18T00:00:27.510Z,73128
2016-11-18T00:00:36.238Z,73128
2016-11-18T00:00:44.978Z,73125
2016-11-18T00:00:53.707Z,73125
2016-11-18T00:01:02.438Z,73128
2016-11-18T00:01:11.160Z,73121
2016-11-18T00:01:19.883Z,73123
2016-11-18T00:01:28.616Z,73122
2016-11-18T00:01:37.310Z,73120
2016-11-18T00:01:46.018Z,73116
2016-11-18T00:01:54.754Z,73117
2016-11-18T00:02:03.464Z,73113
2016-11-18T00:02:12.190Z,73113
2016-11-18T00:02:20.906Z,73112
2016-11-18T00:02:29.639Z,73110
2016-11-18T00:02:38.342Z,73111
2016-11-18T00:02:47.015Z,73106
2016-11-18T00:02:55.714Z,73108
2016-11-18T00:03:04.424Z,73110
2016-11-18T00:03:13.100Z,73106
2016-11-18T00:03:21.828Z,73107
2016-11-18T00:03:30.551Z,73111
2016-11-18T00:03:39.232Z,73104
2016-11-18T00:03:47.996Z,73097
2016-11-18T00:03:56.707Z,73100
2016-11-18T00:04:05.385Z,73094
2016-11-18T00:04:14.084Z,73095
2016-11-18T00:04:22.819Z,73090
2016-11-18T00:04:31.517Z,73092
2016-11-18T00:04:40.245Z,73090
2016-11-18T00:04:48.909Z,73093
2016-11-18T00:04:57.651Z,73097
2016-11-18T00:05:06.365Z,73109
2016-11-18T00:05:15.022Z,73111
2016-11-18T00:05:23.733Z,73113
2016-11-18T00:05:32.454Z,73119
2016-11-18T00:05:41.151Z,73119
2016-11-18T00:05:49.922Z,73123
2016-11-18T00:05:58.650Z,73121
2016-11-18T00:06:07.364Z,73123
2016-11-18T00:06:16.047Z,73127
2016-11-18T00:06:24.732Z,73126
2016-11-18T00:06:33.471Z,73121
2016-11-18T00:06:42.155Z,73114
2016-11-18T00:06:50.854Z,73105
2016-11-18T00:06:59.542Z,73117
2016-11-18T00:07:08.280Z,73124
2016-11-18T00:07:16.994Z,73125
2016-11-18T00:07:25.722Z,73118
2016-11-18T00:07:34.475Z,73111
2016-11-18T00:07:43.231Z,73110
2016-11-18T00:07:51.938Z,73115
2016-11-18T00:08:00.661Z,73124
2016-11-18T00:08:09.384Z,73125
2016-11-18T00:08:18.108Z,73122
2016-11-18T00:08:26.852Z,73124
2016-11-18T00:08:35.505Z,73122
2016-11-18T00:08:44.246Z,73124
2016-11-18T00:08:52.982Z,73126
2016-11-18T00:09:01.692Z,73122
2016-11-18T00:09:10.408Z,73120
2016-11-18T00:09:19.086Z,73121
2016-11-18T00:09:27.772Z,73123
2016-11-18T00:09:36.514Z,73122
2016-11-18T00:09:45.191Z,73110
2016-11-18T00:09:53.874Z,73103
2016-11-18T00:10:02.596Z,73103
2016-11-18T00:10:11.310Z,73097
2016-11-18T00:10:20.057Z,73105
2016-11-18T00:10:28.757Z,73106
2016-11-18T00:10:37.487Z,73111
2016-11-18T00:10:46.239Z,73108
2016-11-18T00:10:54.912Z,73115
2016-11-18T00:11:03.633Z,73113
2016-11-18T00:11:12.317Z,73115
2016-11-18T00:11:21.029Z,73117
2016-11-18T00:11:29.712Z,73114
2016-11-18T00:11:38.430Z,73114
2016-11-18T00:11:47.119Z,73112
2016-11-18T00:11:55.832Z,73114
2016-11-18T00:12:04.536Z,73112
2016-11-18T00:12:13.260Z,73114
2016-11-18T00:12:21.917Z,73114
2016-11-18T00:12:30.644Z,73114
2016-11-18T00:12:39.643Z,73119
2016-11-18T00:12:48.381Z,73119
2016-11-18T00:12:57.062Z,73118
2016-11-18T00:13:05.786Z,73114
2016-11-18T00:13:14.506Z,73113
2016-11-18T00:13:23.169Z,73107
2016-11-18T00:13:31.871Z,73106
2016-11-18T00:13:40.582Z,73104
2016-11-18T00:13:49.324Z,73105
2016-11-18T00:13:58.054Z,73098
2016-11-18T00:14:06.775Z,73100
2016-11-18T00:14:15.493Z,73096
2016-11-18T00:14:24.205Z,73104
2016-11-18T00:14:32.916Z,73107
2016-11-18T00:14:41.602Z,73113
2016-11-18T00:14:50.279Z,73111
2016-11-18T00:14:59.022Z,73113
2016-11-18T00:15:07.710Z,73115
2016-11-18T00:15:16.456Z,73112
2016-11-18T00:15:25.168Z,73113
2016-11-18T00:15:33.881Z,73113
2016-11-18T00:15:42.626Z,73116
2016-11-18T00:15:51.338Z,73115
2016-11-18T00:16:00.069Z,73115
2016-11-18T00:16:08.814Z,73117
2016-11-18T00:16:17.552Z,73115
2016-11-18T00:16:26.251Z,73119
2016-11-18T00:16:34.958Z,73117
2016-11-18T00:16:43.688Z,73116
2016-11-18T00:16:52.402Z,73113
2016-11-18T00:17:01.063Z,73110
2016-11-18T00:17:10.031Z,73108
2016-11-18T00:17:18.783Z,73110
2016-11-18T00:17:27.486Z,73106
2016-11-18T00:17:36.221Z,73099
2016-11-18T00:17:44.917Z,73106
2016-11-18T00:17:53.645Z,73102
2016-11-18T00:18:02.381Z,73113
2016-11-18T00:18:11.110Z,73108
2016-11-18T00:18:19.833Z,73113
2016-11-18T00:18:28.547Z,73114
2016-11-18T00:18:37.231Z,73114
2016-11-18T00:18:45.954Z,73111
2016-11-18T00:18:54.682Z,73111
2016-11-18T00:19:03.406Z,73105
2016-11-18T00:19:12.094Z,73099
2016-11-18T00:19:20.795Z,73098
2016-11-18T00:19:29.533Z,73094
2016-11-18T00:19:38.194Z,73108
2016-11-18T00:19:46.893Z,73086
2016-11-18T00:19:55.599Z,73083
2016-11-18T00:20:04.281Z,73089
2016-11-18T00:20:12.969Z,73083
2016-11-18T00:20:21.657Z,73080
2016-11-18T00:20:30.412Z,73081
2016-11-18T00:20:39.437Z,73089
2016-11-18T00:20:48.132Z,73087
2016-11-18T00:20:56.839Z,73092
2016-11-18T00:21:05.592Z,73091
2016-11-18T00:21:14.348Z,73091
2016-11-18T00:21:23.090Z,73080
2016-11-18T00:21:31.794Z,73079
2016-11-18T00:21:40.467Z,73071
2016-11-18T00:21:49.125Z,73071
2016-11-18T00:21:57.835Z,73072
2016-11-18T00:22:06.589Z,73073
2016-11-18T00:22:15.323Z,73080
2016-11-18T00:22:24.051Z,73090
2016-11-18T00:22:33.067Z,73096
2016-11-18T00:22:41.796Z,73099
2016-11-18T00:22:50.538Z,73108
2016-11-18T00:22:59.261Z,73108
2016-11-18T00:23:07.946Z,73106
2016-11-18T00:23:16.693Z,73098
2016-11-18T00:23:25.448Z,73099
2016-11-18T00:23:34.189Z,73103
2016-11-18T00:23:42.905Z,73101
2016-11-18T00:23:51.669Z,73107
2016-11-18T00:24:00.340Z,73105
2016-11-18T00:24:09.068Z,73103
2016-11-18T00:24:17.770Z,73102
2016-11-18T00:24:26.471Z,73101
2016-11-18T00:24:35.180Z,73091
2016-11-18T00:24:43.876Z,73086
2016-11-18T00:24:52.639Z,73079
2016-11-18T00:25:01.637Z,73084
2016-11-18T00:25:10.340Z,73086
2016-11-18T00:25:19.067Z,73084
2016-11-18T00:25:27.774Z,73090
2016-11-18T00:25:36.548Z,73088
2016-11-18T00:25:45.262Z,73092
2016-11-18T00:25:53.978Z,73095
2016-11-18T00:26:02.724Z,73101
2016-11-18T00:26:11.446Z,73105
2016-11-18T00:26:20.137Z,73107
2016-11-18T00:26:28.796Z,73104
2016-11-18T00:26:37.495Z,73109
2016-11-18T00:26:46.217Z,73104
2016-11-18T00:26:55.126Z,73094
2016-11-18T00:27:03.850Z,73089
2016-11-18T00:27:12.567Z,73079
2016-11-18T00:27:21.280Z,73075
2016-11-18T00:27:30.011Z,73065
2016-11-18T00:27:38.706Z,73051
2016-11-18T00:27:47.428Z,73049
2016-11-18T00:27:56.119Z,73051
2016-11-18T00:28:04.812Z,73050
2016-11-18T00:28:13.536Z,73053
2016-11-18T00:28:22.257Z,73053
2016-11-18T00:28:30.979Z,73060
2016-11-18T00:28:39.701Z,73072
2016-11-18T00:28:48.423Z,73087
2016-11-18T00:28:57.155Z,73088
2016-11-18T00:29:05.929Z,73093
2016-11-18T00:29:14.671Z,73104
2016-11-18T00:29:23.408Z,73103
2016-11-18T00:29:32.167Z,73105
2016-11-18T00:29:40.869Z,73105
2016-11-18T00:29:49.544Z,73107
2016-11-18T00:29:58.275Z,73102
2016-11-18T00:30:07.019Z,73099
2016-11-18T00:30:16.017Z,73090
2016-11-18T00:30:24.687Z,73082
2016-11-18T00:30:33.437Z,73079
2016-11-18T00:30:42.145Z,73073
2016-11-18T00:30:50.834Z,73080
2016-11-18T00:30:59.536Z,73080
2016-11-18T00:31:08.285Z,73081
2016-11-18T00:31:17.018Z,73087
2016-11-18T00:31:25.711Z,73088
2016-11-18T00:31:34.432Z,73087
2016-11-18T00:31:43.117Z,73089
2016-11-18T00:31:51.853Z,73091
2016-11-18T00:32:00.572Z,73099
2016-11-18T00:32:09.311Z,73098
2016-11-18T00:32:18.056Z,73098
2016-11-18T00:32:26.745Z,73097
2016-11-18T00:32:35.465Z,73101
2016-11-18T00:32:44.173Z,73105
2016-11-18T00:32:52.925Z,73112
2016-11-18T00:33:01.591Z,73113
2016-11-18T00:33:10.337Z,73109
2016-11-18T00:33:19.046Z,73105
2016-11-18T00:33:27.727Z,73095
2016-11-18T00:33:36.408Z,73091
2016-11-18T00:33:45.124Z,73084
2016-11-18T00:33:53.843Z,73079
2016-11-18T00:34:02.564Z,73080
2016-11-18T00:34:11.315Z,73075
2016-11-18T00:34:20.057Z,73079
2016-11-18T00:34:28.763Z,73084
2016-11-18T00:34:37.799Z,73088
2016-11-18T00:34:46.501Z,73093
2016-11-18T00:34:55.223Z,73095
2016-11-18T00:35:04.212Z,73097
2016-11-18T00:35:12.924Z,73100
2016-11-18T00:35:21.637Z,73099
2016-11-18T00:35:30.349Z,73104
2016-11-18T00:35:39.080Z,73103
2016-11-18T00:35:47.779Z,73096
2016-11-18T00:35:56.500Z,73097
2016-11-18T00:36:05.237Z,73092
2016-11-18T00:36:13.949Z,73092
2016-11-18T00:36:22.652Z,73098
2016-11-18T00:36:31.373Z,73096
2016-11-18T00:36:40.074Z,73096
2016-11-18T00:36:48.755Z,73087
2016-11-18T00:36:57.477Z,73084
2016-11-18T00:37:06.187Z,73081
2016-11-18T00:37:14.856Z,73074
2016-11-18T00:37:23.556Z,73067
2016-11-18T00:37:32.282Z,73066
2016-11-18T00:37:40.984Z,73072
2016-11-18T00:37:49.684Z,73082
2016-11-18T00:37:58.417Z,73079
2016-11-18T00:38:07.160Z,73081
2016-11-18T00:38:15.879Z,73085
2016-11-18T00:38:24.605Z,73079
2016-11-18T00:38:33.564Z,73071
2016-11-18T00:38:42.265Z,73078
2016-11-18T00:38:50.990Z,73075
2016-11-18T00:38:59.683Z,73082
2016-11-18T00:39:08.362Z,73083
2016-11-18T00:39:17.084Z,73088
2016-11-18T00:39:25.792Z,73082
2016-11-18T00:39:34.529Z,73084
2016-11-18T00:39:43.230Z,73093
2016-11-18T00:39:51.945Z,73098
2016-11-18T00:40:00.664Z,73093
2016-11-18T00:40:09.416Z,73087
2016-11-18T00:40:18.173Z,73088
2016-11-18T00:40:26.878Z,73082
2016-11-18T00:40:35.606Z,73085
2016-11-18T00:40:44.309Z,73086
2016-11-18T00:40:53.031Z,73091
2016-11-18T00:41:01.751Z,73090
2016-11-18T00:41:10.449Z,73086
2016-11-18T00:41:19.162Z,73089
2016-11-18T00:41:27.886Z,73090
2016-11-18T00:41:36.601Z,73091
2016-11-18T00:41:45.308Z,73086
2016-11-18T00:41:54.048Z,73077
2016-11-18T00:42:02.753Z,73064
2016-11-18T00:42:11.421Z,73069
2016-11-18T00:42:20.192Z,73067
2016-11-18T00:42:28.903Z,73071
2016-11-18T00:42:37.623Z,73069
2016-11-18T00:42:46.351Z,73074
2016-11-18T00:42:55.085Z,73072
2016-11-18T00:43:03.815Z,73050
2016-11-18T00:43:12.566Z,73052
2016-11-18T00:43:21.268Z,73070
2016-11-18T00:43:29.993Z,73067
2016-11-18T00:43:38.736Z,73080
2016-11-18T00:43:47.450Z,73076
2016-11-18T00:43:56.183Z,73068
2016-11-18T00:44:04.879Z,73060
2016-11-18T00:44:13.587Z,73055
2016-11-18T00:44:22.304Z,73056
2016-11-18T00:44:31.034Z,73065
2016-11-18T00:44:39.750Z,73068
2016-11-18T00:44:48.437Z,73077
2016-11-18T00:44:57.117Z,73080
2016-11-18T00:45:05.865Z,73081
2016-11-18T00:45:14.605Z,73084
2016-11-18T00:45:23.307Z,73083
2016-11-18T00:45:32.039Z,73101
2016-11-18T00:45:40.749Z,73107
2016-11-18T00:45:49.436Z,73098
2016-11-18T00:45:58.179Z,73094
2016-11-18T00:46:06.894Z,73093
2016-11-18T00:46:15.898Z,73097
2016-11-18T00:46:24.575Z,73099
2016-11-18T00:46:33.304Z,73103
2016-11-18T00:46:41.982Z,73098
2016-11-18T00:46:50.708Z,73094
2016-11-18T00:46:59.385Z,73095
2016-11-18T00:47:08.045Z,73086
2016-11-18T00:47:16.779Z,73072
2016-11-18T00:47:25.539Z,73067
2016-11-18T00:47:34.200Z,73067
2016-11-18T00:47:42.913Z,73078
2016-11-18T00:47:51.651Z,73088
2016-11-18T00:48:00.370Z,73092
2016-11-18T00:48:09.083Z,73094
2016-11-18T00:48:17.814Z,73099
2016-11-18T00:48:26.533Z,73093
2016-11-18T00:48:35.217Z,73093
2016-11-18T00:48:43.921Z,73093
2016-11-18T00:48:52.691Z,73096
2016-11-18T00:49:01.406Z,73098
2016-11-18T00:49:10.120Z,73097
2016-11-18T00:49:18.833Z,73100
2016-11-18T00:49:27.521Z,73099
2016-11-18T00:49:36.242Z,73101
2016-11-18T00:49:44.987Z,73102
2016-11-18T00:49:53.726Z,73102
2016-11-18T00:50:02.418Z,73104
2016-11-18T00:50:11.139Z,73102
2016-11-18T00:50:19.795Z,73097
2016-11-18T00:50:28.451Z,73095
2016-11-18T00:50:37.201Z,73095
2016-11-18T00:50:45.919Z,73094
2016-11-18T00:50:54.649Z,73090
2016-11-18T00:51:03.387Z,73092
2016-11-18T00:51:12.101Z,73094
2016-11-18T00:51:20.801Z,73099
2016-11-18T00:51:29.490Z,73101
2016-11-18T00:51:38.192Z,73098
2016-11-18T00:51:46.881Z,73107
2016-11-18T00:51:55.577Z,73105
2016-11-18T00:52:04.277Z,73104
2016-11-18T00:52:12.989Z,73095
2016-11-18T00:52:21.702Z,73093
2016-11-18T00:52:30.727Z,73084
2016-11-18T00:52:39.422Z,73073
2016-11-18T00:52:48.097Z,73071
2016-11-18T00:52:56.805Z,73071
2016-11-18T00:53:05.564Z,73090
2016-11-18T00:53:14.247Z,73096
2016-11-18T00:53:22.934Z,73099
2016-11-18T00:53:31.623Z,73094
2016-11-18T00:53:40.336Z,73094
2016-11-18T00:53:49.368Z,73088
2016-11-18T00:53:58.112Z,73090
2016-11-18T00:54:06.825Z,73087
2016-11-18T00:54:16.108Z,73084
2016-11-18T00:54:24.823Z,73089
2016-11-18T00:54:33.553Z,73091
2016-11-18T00:54:42.275Z,73094
2016-11-18T00:54:50.981Z,73091
2016-11-18T00:54:59.689Z,73093
2016-11-18T00:55:08.431Z,73081
2016-11-18T00:55:17.148Z,73078
2016-11-18T00:55:25.899Z,73068
2016-11-18T00:55:34.619Z,73061
2016-11-18T00:55:43.324Z,73062
2016-11-18T00:55:52.032Z,73074
2016-11-18T00:56:00.729Z,73060
2016-11-18T00:56:09.439Z,73065
2016-11-18T00:56:18.173Z,73071
2016-11-18T00:56:27.173Z,73070
2016-11-18T00:56:35.907Z,73071
2016-11-18T00:56:44.569Z,73076
2016-11-18T00:56:53.272Z,73077
2016-11-18T00:57:02.142Z,73072
2016-11-18T00:57:10.843Z,73074
2016-11-18T00:57:19.571Z,73069
2016-11-18T00:57:28.293Z,73069
2016-11-18T00:57:37.294Z,73077
2016-11-18T00:57:46.002Z,73083
2016-11-18T00:57:54.747Z,73086
2016-11-18T00:58:03.466Z,73082
2016-11-18T00:58:12.159Z,73084
2016-11-18T00:58:20.869Z,73084
2016-11-18T00:58:29.588Z,73078
2016-11-18T00:58:38.275Z,73081
2016-11-18T00:58:47.031Z,73082
2016-11-18T00:58:55.706Z,73081
2016-11-18T00:59:04.463Z,73083
2016-11-18T00:59:13.212Z,73083
2016-11-18T00:59:21.894Z,73081
2016-11-18T00:59:30.632Z,73075
2016-11-18T00:59:39.345Z,73077
2016-11-18T00:59:48.058Z,73076
2016-11-18T00:59:56.750Z,73077
2016-11-18T01:00:05.438Z,73082
2016-11-18T01:00:14.180Z,73070
2016-11-18T01:00:22.883Z,73065
2016-11-18T01:00:31.621Z,73059
2016-11-18T01:00:40.327Z,73058
2016-11-18T01:00:49.022Z,73047
2016-11-18T01:00:58.018Z,73049
2016-11-18T01:01:06.727Z,73062
2016-11-18T01:01:15.479Z,73063
2016-11-18T01:01:24.283Z,73076
2016-11-18T01:01:32.998Z,73089
2016-11-18T01:01:41.739Z,73089
2016-11-18T01:01:50.468Z,73090
2016-11-18T01:01:59.155Z,73087
2016-11-18T01:02:07.852Z,73080
2016-11-18T01:02:16.553Z,73081
2016-11-18T01:02:25.275Z,73076
2016-11-18T01:02:33.985Z,73079
2016-11-18T01:02:42.689Z,73073
2016-11-18T01:02:51.417Z,73059
2016-11-18T01:03:00.141Z,73059
2016-11-18T01:03:08.834Z,73049
2016-11-18T01:03:17.554Z,73052
2016-11-18T01:03:26.253Z,73049
2016-11-18T01:03:34.986Z,73061
2016-11-18T01:03:43.731Z,73073
2016-11-18T01:03:52.412Z,73074
2016-11-18T01:04:01.145Z,73074
2016-11-18T01:04:09.804Z,73067
2016-11-18T01:04:18.489Z,73065
2016-11-18T01:04:27.209Z,73066
2016-11-18T01:04:35.910Z,73075
2016-11-18T01:04:44.903Z,73074
2016-11-18T01:04:53.628Z,73081
2016-11-18T01:05:02.369Z,73076
2016-11-18T01:05:11.080Z,73083
2016-11-18T01:05:19.845Z,73082
2016-11-18T01:05:28.559Z,73079
2016-11-18T01:05:37.268Z,73069
2016-11-18T01:05:46.013Z,73070
2016-11-18T01:05:54.758Z,73062
2016-11-18T01:06:03.507Z,73073
2016-11-18T01:06:12.233Z,73068
2016-11-18T01:06:20.948Z,73066
2016-11-18T01:06:29.646Z,73068
2016-11-18T01:06:38.349Z,73073
2016-11-18T01:06:47.055Z,73076
2016-11-18T01:06:55.799Z,73082
2016-11-18T01:07:04.503Z,73089
2016-11-18T01:07:13.208Z,73082
2016-11-18T01:07:21.958Z,73089
2016-11-18T01:07:30.676Z,73096
2016-11-18T01:07:39.385Z,73100
2016-11-18T01:07:48.129Z,73109
2016-11-18T01:07:56.876Z,73101
2016-11-18T01:08:05.580Z,73087
2016-11-18T01:08:14.299Z,73078
2016-11-18T01:08:22.987Z,73066
2016-11-18T01:08:31.690Z,73065
2016-11-18T01:08:40.432Z,73069
2016-11-18T01:08:49.126Z,73076
2016-11-18T01:08:57.850Z,73077
2016-11-18T01:09:06.616Z,73075
2016-11-18T01:09:15.349Z,73081
2016-11-18T01:09:24.065Z,73084
2016-11-18T01:09:32.775Z,73084
2016-11-18T01:09:41.469Z,73084
2016-11-18T01:09:50.192Z,73086
2016-11-18T01:09:58.914Z,73081
2016-11-18T01:10:07.633Z,73069
2016-11-18T01:10:16.354Z,73076
2016-11-18T01:10:25.077Z,73068
2016-11-18T01:10:33.826Z,73078
2016-11-18T01:10:42.545Z,73062
2016-11-18T01:10:51.254Z,73046
2016-11-18T01:11:00.000Z,73055
2016-11-18T01:11:08.717Z,73073
2016-11-18T01:11:17.421Z,73078
2016-11-18T01:11:26.141Z,73091
2016-11-18T01:11:34.808Z,73099
2016-11-18T01:11:43.553Z,73108
2016-11-18T01:11:52.273Z,73103
2016-11-18T01:12:01.049Z,73096
2016-11-18T01:12:09.763Z,73090
2016-11-18T01:12:18.452Z,73083
2016-11-18T01:12:27.165Z,73078
2016-11-18T01:12:35.864Z,73081
2016-11-18T01:12:44.630Z,73095
2016-11-18T01:12:53.361Z,73088
2016-11-18T01:13:02.063Z,73083
2016-11-18T01:13:10.769Z,73081
2016-11-18T01:13:19.470Z,73079
2016-11-18T01:13:28.247Z,73064
2016-11-18T01:13:36.939Z,73078
2016-11-18T01:13:45.689Z,73079
2016-11-18T01:13:54.389Z,73077
2016-11-18T01:14:03.116Z,73088
2016-11-18T01:14:11.855Z,73095
2016-11-18T01:14:20.540Z,73106
2016-11-18T01:14:29.276Z,73087
2016-11-18T01:14:37.940Z,73082
2016-11-18T01:14:46.666Z,73083
2016-11-18T01:14:55.411Z,73088
2016-11-18T01:15:04.129Z,73083
2016-11-18T01:15:12.858Z,73085
2016-11-18T01:15:21.856Z,73094
2016-11-18T01:15:30.631Z,73101
2016-11-18T01:15:39.375Z,73099
2016-11-18T01:15:48.053Z,73092
2016-11-18T01:15:56.744Z,73091
2016-11-18T01:16:05.504Z,73092
2016-11-18T01:16:14.237Z,73097
2016-11-18T01:16:22.960Z,73076
2016-11-18T01:16:31.994Z,73075
2016-11-18T01:16:40.675Z,73075
2016-11-18T01:16:49.359Z,73081
2016-11-18T01:16:58.110Z,73089
2016-11-18T01:17:06.789Z,73095
2016-11-18T01:17:15.518Z,73090
2016-11-18T01:17:24.253Z,73079
2016-11-18T01:17:32.940Z,73080
2016-11-18T01:17:41.675Z,73082
2016-11-18T01:17:50.347Z,73081
2016-11-18T01:17:59.332Z,73077
2016-11-18T01:18:08.057Z,73070
2016-11-18T01:18:16.720Z,73074
2016-11-18T01:18:25.439Z,73079
2016-11-18T01:18:34.141Z,73082
2016-11-18T01:18:42.819Z,73090
2016-11-18T01:18:51.560Z,73092
2016-11-18T01:19:00.289Z,73083
2016-11-18T01:19:08.961Z,73089
2016-11-18T01:19:17.713Z,73086
2016-11-18T01:19:26.444Z,73080
2016-11-18T01:19:35.165Z,73076
2016-11-18T01:19:43.896Z,73058
2016-11-18T01:19:52.633Z,73072
2016-11-18T01:20:01.319Z,73062
2016-11-18T01:20:10.048Z,73072
2016-11-18T01:20:18.770Z,73065
2016-11-18T01:20:27.496Z,73077
2016-11-18T01:20:36.194Z,73075
2016-11-18T01:20:44.875Z,73079
2016-11-18T01:20:53.583Z,73078
2016-11-18T01:21:02.318Z,73076
2016-11-18T01:21:11.020Z,73069
2016-11-18T01:21:19.707Z,73067
2016-11-18T01:21:28.436Z,73090
2016-11-18T01:21:37.160Z,73088
2016-11-18T01:21:45.874Z,73073
2016-11-18T01:21:54.590Z,73060
2016-11-18T01:22:03.360Z,73068
2016-11-18T01:22:12.059Z,73076
2016-11-18T01:22:20.765Z,73075
2016-11-18T01:22:29.488Z,73080
2016-11-18T01:22:38.462Z,73080
2016-11-18T01:22:47.470Z,73080
2016-11-18T01:22:56.197Z,73080
2016-11-18T01:23:05.186Z,73068
2016-11-18T01:23:13.911Z,73065
2016-11-18T01:23:22.672Z,73056
2016-11-18T01:23:31.658Z,73060
2016-11-18T01:23:40.377Z,73055
2016-11-18T01:23:49.125Z,73056
2016-11-18T01:23:57.869Z,73076
2016-11-18T01:24:06.593Z,73088
2016-11-18T01:24:15.292Z,73092
2016-11-18T01:24:24.017Z,73082
2016-11-18T01:24:32.720Z,73081
2016-11-18T01:24:41.457Z,73076
2016-11-18T01:24:50.159Z,73077
2016-11-18T01:24:58.892Z,73088
2016-11-18T01:25:07.588Z,73075
2016-11-18T01:25:16.319Z,73076
2016-11-18T01:25:24.998Z,73071
2016-11-18T01:25:33.720Z,73060
2016-11-18T01:25:42.457Z,73081
2016-11-18T01:25:51.113Z,73094
2016-11-18T01:25:59.798Z,73097
2016-11-18T01:26:08.810Z,73098
2016-11-18T01:26:17.520Z,73095
2016-11-18T01:26:26.235Z,73088
2016-11-18T01:26:34.935Z,73072
2016-11-18T01:26:43.616Z,73093
2016-11-18T01:26:52.297Z,73108
2016-11-18T01:27:01.000Z,73120
2016-11-18T01:27:09.657Z,73105
2016-11-18T01:27:18.374Z,73069
2016-11-18T01:27:27.111Z,73052
2016-11-18T01:27:35.798Z,73054
2016-11-18T01:27:44.527Z,73066
2016-11-18T01:27:53.242Z,73073
2016-11-18T01:28:01.941Z,73077
2016-11-18T01:28:10.680Z,73074
2016-11-18T01:28:19.358Z,73078
2016-11-18T01:28:28.035Z,73079
2016-11-18T01:28:36.780Z,73079
2016-11-18T01:28:45.522Z,73071
2016-11-18T01:28:54.239Z,73067
2016-11-18T01:29:02.949Z,73069
2016-11-18T01:29:11.644Z,73072
2016-11-18T01:29:20.352Z,73067
2016-11-18T01:29:29.082Z,73070
2016-11-18T01:29:37.792Z,73063
2016-11-18T01:29:46.500Z,73062
2016-11-18T01:29:55.179Z,73059
2016-11-18T01:30:03.937Z,73055
2016-11-18T01:30:12.704Z,73043
2016-11-18T01:30:21.404Z,73053
2016-11-18T01:30:30.155Z,73044
2016-11-18T01:30:38.855Z,73052
2016-11-18T01:30:47.624Z,73044
2016-11-18T01:30:56.309Z,73045
2016-11-18T01:31:05.016Z,73058
2016-11-18T01:31:13.695Z,73053
2016-11-18T01:31:22.406Z,73058
2016-11-18T01:31:31.074Z,73061
2016-11-18T01:31:39.758Z,73070
2016-11-18T01:31:48.483Z,73054
2016-11-18T01:31:57.211Z,73056
2016-11-18T01:32:05.901Z,73060
2016-11-18T01:32:14.585Z,73050
2016-11-18T01:32:23.285Z,73042
2016-11-18T01:32:31.954Z,73040
2016-11-18T01:32:40.697Z,73065
2016-11-18T01:32:49.434Z,73080
2016-11-18T01:32:58.165Z,73085
2016-11-18T01:33:06.859Z,73084
2016-11-18T01:33:15.585Z,73078
2016-11-18T01:33:24.268Z,73080
2016-11-18T01:33:32.971Z,73072
2016-11-18T01:33:41.720Z,73079
2016-11-18T01:33:50.748Z,73088
2016-11-18T01:33:59.435Z,73090
2016-11-18T01:34:08.136Z,73095
2016-11-18T01:34:16.856Z,73084
2016-11-18T01:34:25.567Z,73089
2016-11-18T01:34:34.240Z,73089
2016-11-18T01:34:42.972Z,73097
2016-11-18T01:34:51.709Z,73087
2016-11-18T01:35:00.440Z,73081
2016-11-18T01:35:09.103Z,73074
2016-11-18T01:35:17.838Z,73068
2016-11-18T01:35:26.510Z,73063
2016-11-18T01:35:35.232Z,73051
2016-11-18T01:35:43.909Z,73054
2016-11-18T01:35:52.626Z,73058
2016-11-18T01:36:01.334Z,73043
2016-11-18T01:36:10.062Z,73034
2016-11-18T01:36:18.761Z,73034
2016-11-18T01:36:27.759Z,73034
2016-11-18T01:36:36.749Z,73033
2016-11-18T01:36:45.467Z,73027
2016-11-18T01:36:54.155Z,73032
2016-11-18T01:37:02.890Z,73035
2016-11-18T01:37:11.574Z,73044
2016-11-18T01:37:20.277Z,73049
2016-11-18T01:37:28.987Z,73045
2016-11-18T01:37:37.679Z,73051
2016-11-18T01:37:46.387Z,73049
2016-11-18T01:37:55.097Z,73054
2016-11-18T01:38:03.843Z,73048
2016-11-18T01:38:12.557Z,73044
2016-11-18T01:38:21.308Z,73049
2016-11-18T01:38:30.019Z,73044
2016-11-18T01:38:38.762Z,73042
2016-11-18T01:38:47.486Z,73053
2016-11-18T01:38:56.218Z,73057
2016-11-18T01:39:04.933Z,73068
2016-11-18T01:39:13.648Z,73062
2016-11-18T01:39:22.411Z,73052
2016-11-18T01:39:31.126Z,73048
2016-11-18T01:39:39.851Z,73052
2016-11-18T01:39:48.551Z,73047
2016-11-18T01:39:57.281Z,73051
2016-11-18T01:40:05.996Z,73049
2016-11-18T01:40:14.698Z,73050
2016-11-18T01:40:23.404Z,73057
2016-11-18T01:40:32.134Z,73060
2016-11-18T01:40:40.856Z,73065
2016-11-18T01:40:49.562Z,73064
2016-11-18T01:40:58.288Z,73066
2016-11-18T01:41:07.013Z,73061
2016-11-18T01:41:15.755Z,73060
2016-11-18T01:41:24.461Z,73054
2016-11-18T01:41:33.158Z,73048
2016-11-18T01:41:41.872Z,73043
2016-11-18T01:41:50.600Z,73041
2016-11-18T01:41:59.363Z,73042
2016-11-18T01:42:08.088Z,73038
2016-11-18T01:42:16.832Z,73042
2016-11-18T01:42:25.569Z,73046
2016-11-18T01:42:34.272Z,73053
2016-11-18T01:42:42.974Z,73058
2016-11-18T01:42:51.696Z,73061
2016-11-18T01:43:00.403Z,73066
2016-11-18T01:43:09.139Z,73061
2016-11-18T01:43:17.859Z,73057
2016-11-18T01:43:26.548Z,73054
2016-11-18T01:43:35.249Z,73048
2016-11-18T01:43:44.251Z,73047
2016-11-18T01:43:52.938Z,73046
2016-11-18T01:44:01.642Z,73044
2016-11-18T01:44:10.373Z,73036
2016-11-18T01:44:19.065Z,73034
2016-11-18T01:44:27.745Z,73050
2016-11-18T01:44:36.477Z,73047
2016-11-18T01:44:45.222Z,73054
2016-11-18T01:44:53.921Z,73059
2016-11-18T01:45:02.703Z,73058
2016-11-18T01:45:11.454Z,73065
2016-11-18T01:45:20.115Z,73064
2016-11-18T01:45:28.852Z,73054
2016-11-18T01:45:37.605Z,73045
2016-11-18T01:45:46.334Z,73039
2016-11-18T01:45:55.015Z,73039
2016-11-18T01:46:03.760Z,73035
2016-11-18T01:46:12.485Z,73031
2016-11-18T01:46:21.164Z,73039
2016-11-18T01:46:29.842Z,73040
2016-11-18T01:46:38.564Z,73044
2016-11-18T01:46:47.242Z,73046
2016-11-18T01:46:55.962Z,73051
2016-11-18T01:47:04.645Z,73051
2016-11-18T01:47:13.335Z,73051
2016-11-18T01:47:22.031Z,73051
2016-11-18T01:47:30.772Z,73057
2016-11-18T01:47:39.523Z,73055
2016-11-18T01:47:48.259Z,73043
2016-11-18T01:47:56.982Z,73045
2016-11-18T01:48:05.731Z,73042
2016-11-18T01:48:14.439Z,73045
2016-11-18T01:48:23.189Z,73043
2016-11-18T01:48:31.872Z,73041
2016-11-18T01:48:40.584Z,73052
2016-11-18T01:48:49.297Z,73050
2016-11-18T01:48:58.020Z,73048
2016-11-18T01:49:06.691Z,73040
2016-11-18T01:49:15.450Z,73051
2016-11-18T01:49:24.113Z,73057
2016-11-18T01:49:32.801Z,73063
2016-11-18T01:49:41.522Z,73065
2016-11-18T01:49:50.242Z,73066
2016-11-18T01:49:58.964Z,73061
2016-11-18T01:50:07.678Z,73059
2016-11-18T01:50:16.342Z,73060
2016-11-18T01:50:25.078Z,73058
2016-11-18T01:50:33.807Z,73061
2016-11-18T01:50:42.520Z,73059
2016-11-18T01:50:51.227Z,73058
2016-11-18T01:50:59.940Z,73064
2016-11-18T01:51:08.666Z,73073
2016-11-18T01:51:17.409Z,73073
2016-11-18T01:51:26.086Z,73073
2016-11-18T01:51:34.781Z,73060
2016-11-18T01:51:43.480Z,73073
2016-11-18T01:51:52.198Z,73082
2016-11-18T01:52:00.884Z,73093
2016-11-18T01:52:09.624Z,73085
2016-11-18T01:52:18.348Z,73074